sensor_id;sensor_type;location;lat;lon;timestamp;P1;durP1;ratioP1;P2;durP2;ratioP2
13897;SDS011;7019;50.766;4.474;2023-02-12T00:02:08;60.37;;;36.37;;
13897;SDS011;7019;50.766;4.474;2023-02-12T00:04:36;56.37;;;34.33;;
13897;SDS011;7019;50.766;4.474;2023-02-12T00:07:03;54.63;;;30.70;;
13897;SDS011;7019;50.766;4.474;2023-02-12T00:09:31;45.63;;;29.83;;
13897;SDS011;7019;50.766;4.474;2023-02-12T00:11:58;42.37;;;27.80;;
13897;SDS011;7019;50.766;4.474;2023-02-12T00:14:26;38.67;;;27.97;;
13897;SDS011;7019;50.766;4.474;2023-02-12T00:16:53;36.33;;;25.67;;
13897;SDS011;7019;50.766;4.474;2023-02-12T00:19:20;33.83;;;24.47;;
13897;SDS011;7019;50.766;4.474;2023-02-12T00:21:47;33.50;;;24.03;;
13897;SDS011;7019;50.766;4.474;2023-02-12T00:24:14;33.27;;;24.10;;
13897;SDS011;7019;50.766;4.474;2023-02-12T00:26:42;34.10;;;24.40;;
13897;SDS011;7019;50.766;4.474;2023-02-12T00:29:10;30.00;;;21.97;;
13897;SDS011;7019;50.766;4.474;2023-02-12T00:31:37;33.43;;;22.80;;
13897;SDS011;7019;50.766;4.474;2023-02-12T00:34:04;31.97;;;22.80;;
13897;SDS011;7019;50.766;4.474;2023-02-12T00:36:31;33.27;;;21.33;;
13897;SDS011;7019;50.766;4.474;2023-02-12T00:38:58;28.63;;;21.70;;
13897;SDS011;7019;50.766;4.474;2023-02-12T00:41:26;26.57;;;19.57;;
13897;SDS011;7019;50.766;4.474;2023-02-12T00:43:55;25.97;;;20.13;;
13897;SDS011;7019;50.766;4.474;2023-02-12T00:46:22;28.93;;;20.43;;
13897;SDS011;7019;50.766;4.474;2023-02-12T00:48:49;29.57;;;20.40;;
13897;SDS011;7019;50.766;4.474;2023-02-12T00:51:17;27.27;;;19.63;;
13897;SDS011;7019;50.766;4.474;2023-02-12T00:53:44;28.07;;;20.40;;
13897;SDS011;7019;50.766;4.474;2023-02-12T00:56:11;25.30;;;18.40;;
13897;SDS011;7019;50.766;4.474;2023-02-12T00:58:38;26.40;;;20.73;;
13897;SDS011;7019;50.766;4.474;2023-02-12T01:01:07;27.47;;;19.80;;
13897;SDS011;7019;50.766;4.474;2023-02-12T01:03:34;27.13;;;20.17;;
13897;SDS011;7019;50.766;4.474;2023-02-12T01:06:01;24.90;;;18.30;;
13897;SDS011;7019;50.766;4.474;2023-02-12T01:08:28;27.47;;;19.57;;
13897;SDS011;7019;50.766;4.474;2023-02-12T01:10:56;26.07;;;18.70;;
13897;SDS011;7019;50.766;4.474;2023-02-12T01:13:25;25.53;;;19.20;;
13897;SDS011;7019;50.766;4.474;2023-02-12T01:16:01;23.33;;;18.23;;
13897;SDS011;7019;50.766;4.474;2023-02-12T01:18:32;22.83;;;18.90;;
13897;SDS011;7019;50.766;4.474;2023-02-12T01:20:59;25.60;;;20.00;;
13897;SDS011;7019;50.766;4.474;2023-02-12T01:23:26;25.33;;;19.83;;
13897;SDS011;7019;50.766;4.474;2023-02-12T01:25:53;26.80;;;19.73;;
13897;SDS011;7019;50.766;4.474;2023-02-12T01:28:20;25.67;;;21.03;;
13897;SDS011;7019;50.766;4.474;2023-02-12T01:30:47;23.87;;;18.93;;
13897;SDS011;7019;50.766;4.474;2023-02-12T01:33:15;24.47;;;20.00;;
13897;SDS011;7019;50.766;4.474;2023-02-12T01:35:43;24.60;;;21.57;;
13897;SDS011;7019;50.766;4.474;2023-02-12T01:38:10;25.70;;;20.23;;
13897;SDS011;7019;50.766;4.474;2023-02-12T01:40:37;26.73;;;21.37;;
13897;SDS011;7019;50.766;4.474;2023-02-12T01:43:05;26.60;;;22.03;;
13897;SDS011;7019;50.766;4.474;2023-02-12T01:45:46;26.60;;;21.93;;
13897;SDS011;7019;50.766;4.474;2023-02-12T01:48:17;26.17;;;20.60;;
13897;SDS011;7019;50.766;4.474;2023-02-12T01:50:50;26.37;;;21.87;;
13897;SDS011;7019;50.766;4.474;2023-02-12T01:53:19;23.30;;;20.40;;
13897;SDS011;7019;50.766;4.474;2023-02-12T01:55:52;23.47;;;20.07;;
13897;SDS011;7019;50.766;4.474;2023-02-12T01:58:23;26.17;;;21.03;;
13897;SDS011;7019;50.766;4.474;2023-02-12T02:00:54;21.03;;;18.73;;
13897;SDS011;7019;50.766;4.474;2023-02-12T02:03:21;22.27;;;18.73;;
13897;SDS011;7019;50.766;4.474;2023-02-12T02:05:51;27.63;;;19.60;;
13897;SDS011;7019;50.766;4.474;2023-02-12T02:08:21;22.37;;;19.40;;
13897;SDS011;7019;50.766;4.474;2023-02-12T02:10:48;25.10;;;19.60;;
13897;SDS011;7019;50.766;4.474;2023-02-12T02:13:15;21.97;;;19.67;;
13897;SDS011;7019;50.766;4.474;2023-02-12T02:16:03;24.00;;;18.77;;
13897;SDS011;7019;50.766;4.474;2023-02-12T02:18:37;24.30;;;19.63;;
13897;SDS011;7019;50.766;4.474;2023-02-12T02:21:13;23.43;;;19.77;;
13897;SDS011;7019;50.766;4.474;2023-02-12T02:24:09;21.33;;;18.43;;
13897;SDS011;7019;50.766;4.474;2023-02-12T02:27:05;20.60;;;18.43;;
13897;SDS011;7019;50.766;4.474;2023-02-12T02:32:59;21.97;;;18.17;;
13897;SDS011;7019;50.766;4.474;2023-02-12T02:35:37;24.17;;;19.70;;
13897;SDS011;7019;50.766;4.474;2023-02-12T02:38:14;23.80;;;19.27;;
13897;SDS011;7019;50.766;4.474;2023-02-12T02:40:48;22.67;;;18.23;;
13897;SDS011;7019;50.766;4.474;2023-02-12T02:43:21;23.80;;;19.90;;
13897;SDS011;7019;50.766;4.474;2023-02-12T02:45:54;20.93;;;18.43;;
13897;SDS011;7019;50.766;4.474;2023-02-12T02:48:28;21.87;;;18.20;;
13897;SDS011;7019;50.766;4.474;2023-02-12T02:51:00;20.33;;;18.13;;
13897;SDS011;7019;50.766;4.474;2023-02-12T02:53:31;21.97;;;19.47;;
13897;SDS011;7019;50.766;4.474;2023-02-12T02:56:02;23.67;;;18.47;;
13897;SDS011;7019;50.766;4.474;2023-02-12T02:58:34;23.63;;;18.67;;
13897;SDS011;7019;50.766;4.474;2023-02-12T03:01:06;23.43;;;18.53;;
13897;SDS011;7019;50.766;4.474;2023-02-12T03:03:37;21.40;;;18.00;;
13897;SDS011;7019;50.766;4.474;2023-02-12T03:06:09;21.10;;;17.23;;
13897;SDS011;7019;50.766;4.474;2023-02-12T03:08:39;19.97;;;17.87;;
13897;SDS011;7019;50.766;4.474;2023-02-12T03:11:14;20.87;;;17.80;;
13897;SDS011;7019;50.766;4.474;2023-02-12T03:13:47;21.47;;;18.50;;
13897;SDS011;7019;50.766;4.474;2023-02-12T03:16:19;21.37;;;18.60;;
13897;SDS011;7019;50.766;4.474;2023-02-12T03:18:50;20.10;;;17.87;;
13897;SDS011;7019;50.766;4.474;2023-02-12T03:21:21;22.23;;;19.33;;
13897;SDS011;7019;50.766;4.474;2023-02-12T03:23:54;24.43;;;19.40;;
13897;SDS011;7019;50.766;4.474;2023-02-12T03:26:30;23.87;;;18.87;;
13897;SDS011;7019;50.766;4.474;2023-02-12T03:29:03;20.77;;;17.57;;
13897;SDS011;7019;50.766;4.474;2023-02-12T03:31:34;20.77;;;17.10;;
13897;SDS011;7019;50.766;4.474;2023-02-12T03:34:08;20.43;;;18.13;;
13897;SDS011;7019;50.766;4.474;2023-02-12T03:36:42;20.67;;;18.10;;
13897;SDS011;7019;50.766;4.474;2023-02-12T03:39:15;22.47;;;18.07;;
13897;SDS011;7019;50.766;4.474;2023-02-12T03:41:53;22.10;;;19.70;;
13897;SDS011;7019;50.766;4.474;2023-02-12T03:44:29;23.27;;;19.17;;
13897;SDS011;7019;50.766;4.474;2023-02-12T03:47:14;21.27;;;18.50;;
13897;SDS011;7019;50.766;4.474;2023-02-12T03:49:48;23.33;;;19.63;;
13897;SDS011;7019;50.766;4.474;2023-02-12T03:52:22;22.37;;;19.87;;
13897;SDS011;7019;50.766;4.474;2023-02-12T03:54:49;24.33;;;19.80;;
13897;SDS011;7019;50.766;4.474;2023-02-12T03:57:18;22.30;;;19.17;;
13897;SDS011;7019;50.766;4.474;2023-02-12T03:59:47;20.27;;;18.13;;
13897;SDS011;7019;50.766;4.474;2023-02-12T04:02:17;20.97;;;18.77;;
13897;SDS011;7019;50.766;4.474;2023-02-12T04:04:45;26.37;;;20.77;;
13897;SDS011;7019;50.766;4.474;2023-02-12T04:07:13;30.40;;;21.37;;
13897;SDS011;7019;50.766;4.474;2023-02-12T04:09:42;27.57;;;21.13;;
13897;SDS011;7019;50.766;4.474;2023-02-12T04:15:15;28.90;;;21.50;;
13897;SDS011;7019;50.766;4.474;2023-02-12T04:18:00;29.73;;;22.23;;
13897;SDS011;7019;50.766;4.474;2023-02-12T04:20:34;25.80;;;21.23;;
13897;SDS011;7019;50.766;4.474;2023-02-12T04:23:16;22.80;;;19.60;;
13897;SDS011;7019;50.766;4.474;2023-02-12T04:25:58;23.27;;;19.20;;
13897;SDS011;7019;50.766;4.474;2023-02-12T04:28:34;27.03;;;21.13;;
13897;SDS011;7019;50.766;4.474;2023-02-12T04:31:07;28.07;;;20.43;;
13897;SDS011;7019;50.766;4.474;2023-02-12T04:33:43;27.40;;;21.00;;
13897;SDS011;7019;50.766;4.474;2023-02-12T04:36:14;25.00;;;21.17;;
13897;SDS011;7019;50.766;4.474;2023-02-12T04:38:47;26.30;;;20.63;;
13897;SDS011;7019;50.766;4.474;2023-02-12T04:41:19;30.27;;;22.63;;
13897;SDS011;7019;50.766;4.474;2023-02-12T04:43:46;28.07;;;21.53;;
13897;SDS011;7019;50.766;4.474;2023-02-12T04:46:13;25.73;;;21.33;;
13897;SDS011;7019;50.766;4.474;2023-02-12T04:48:46;29.77;;;23.20;;
13897;SDS011;7019;50.766;4.474;2023-02-12T04:51:17;24.73;;;20.63;;
13897;SDS011;7019;50.766;4.474;2023-02-12T04:53:44;32.63;;;24.67;;
13897;SDS011;7019;50.766;4.474;2023-02-12T04:56:12;29.70;;;22.67;;
13897;SDS011;7019;50.766;4.474;2023-02-12T04:58:39;27.50;;;21.80;;
13897;SDS011;7019;50.766;4.474;2023-02-12T05:01:07;25.30;;;21.63;;
13897;SDS011;7019;50.766;4.474;2023-02-12T05:03:35;25.33;;;20.63;;
13897;SDS011;7019;50.766;4.474;2023-02-12T05:06:04;25.07;;;20.53;;
13897;SDS011;7019;50.766;4.474;2023-02-12T05:08:32;28.63;;;21.70;;
13897;SDS011;7019;50.766;4.474;2023-02-12T05:11:02;25.47;;;21.77;;
13897;SDS011;7019;50.766;4.474;2023-02-12T05:13:30;25.53;;;22.07;;
13897;SDS011;7019;50.766;4.474;2023-02-12T05:15:57;27.53;;;23.10;;
13897;SDS011;7019;50.766;4.474;2023-02-12T05:18:25;29.00;;;22.20;;
13897;SDS011;7019;50.766;4.474;2023-02-12T05:20:55;28.33;;;22.70;;
13897;SDS011;7019;50.766;4.474;2023-02-12T05:23:26;27.57;;;23.00;;
13897;SDS011;7019;50.766;4.474;2023-02-12T05:25:53;32.10;;;22.93;;
13897;SDS011;7019;50.766;4.474;2023-02-12T05:28:23;28.40;;;21.73;;
13897;SDS011;7019;50.766;4.474;2023-02-12T05:30:50;31.80;;;23.23;;
13897;SDS011;7019;50.766;4.474;2023-02-12T05:33:17;32.90;;;23.83;;
13897;SDS011;7019;50.766;4.474;2023-02-12T05:35:44;29.17;;;22.90;;
13897;SDS011;7019;50.766;4.474;2023-02-12T05:38:11;31.13;;;23.73;;
13897;SDS011;7019;50.766;4.474;2023-02-12T05:40:40;29.67;;;23.90;;
13897;SDS011;7019;50.766;4.474;2023-02-12T05:43:07;26.00;;;22.27;;
13897;SDS011;7019;50.766;4.474;2023-02-12T05:45:34;28.00;;;23.13;;
13897;SDS011;7019;50.766;4.474;2023-02-12T05:48:02;28.97;;;23.53;;
13897;SDS011;7019;50.766;4.474;2023-02-12T05:50:29;28.80;;;23.23;;
13897;SDS011;7019;50.766;4.474;2023-02-12T05:52:58;28.53;;;22.43;;
13897;SDS011;7019;50.766;4.474;2023-02-12T05:55:25;29.50;;;22.13;;
13897;SDS011;7019;50.766;4.474;2023-02-12T05:57:54;32.27;;;23.70;;
13897;SDS011;7019;50.766;4.474;2023-02-12T06:00:21;32.30;;;23.53;;
13897;SDS011;7019;50.766;4.474;2023-02-12T06:02:48;28.57;;;22.97;;
13897;SDS011;7019;50.766;4.474;2023-02-12T06:05:16;24.70;;;22.00;;
13897;SDS011;7019;50.766;4.474;2023-02-12T06:07:43;27.70;;;23.10;;
13897;SDS011;7019;50.766;4.474;2023-02-12T06:10:10;30.67;;;23.80;;
13897;SDS011;7019;50.766;4.474;2023-02-12T06:12:37;32.43;;;23.63;;
13897;SDS011;7019;50.766;4.474;2023-02-12T06:15:06;34.03;;;25.17;;
13897;SDS011;7019;50.766;4.474;2023-02-12T06:17:34;31.13;;;24.40;;
13897;SDS011;7019;50.766;4.474;2023-02-12T06:20:01;31.33;;;23.80;;
13897;SDS011;7019;50.766;4.474;2023-02-12T06:22:28;31.50;;;24.50;;
13897;SDS011;7019;50.766;4.474;2023-02-12T06:24:56;28.93;;;23.90;;
13897;SDS011;7019;50.766;4.474;2023-02-12T06:27:23;31.70;;;25.43;;
13897;SDS011;7019;50.766;4.474;2023-02-12T06:29:50;32.63;;;25.27;;
13897;SDS011;7019;50.766;4.474;2023-02-12T06:32:18;34.93;;;25.47;;
13897;SDS011;7019;50.766;4.474;2023-02-12T06:34:46;29.80;;;23.70;;
13897;SDS011;7019;50.766;4.474;2023-02-12T06:37:13;30.40;;;24.47;;
13897;SDS011;7019;50.766;4.474;2023-02-12T06:39:40;26.90;;;22.63;;
13897;SDS011;7019;50.766;4.474;2023-02-12T06:42:07;29.73;;;23.73;;
13897;SDS011;7019;50.766;4.474;2023-02-12T06:44:34;29.10;;;24.70;;
13897;SDS011;7019;50.766;4.474;2023-02-12T06:47:02;26.47;;;22.03;;
13897;SDS011;7019;50.766;4.474;2023-02-12T06:49:30;30.23;;;23.53;;
13897;SDS011;7019;50.766;4.474;2023-02-12T06:51:57;35.90;;;24.30;;
13897;SDS011;7019;50.766;4.474;2023-02-12T06:54:24;30.80;;;24.07;;
13897;SDS011;7019;50.766;4.474;2023-02-12T06:56:52;29.27;;;22.83;;
13897;SDS011;7019;50.766;4.474;2023-02-12T06:59:19;28.27;;;22.40;;
13897;SDS011;7019;50.766;4.474;2023-02-12T07:01:46;25.83;;;22.07;;
13897;SDS011;7019;50.766;4.474;2023-02-12T07:04:13;29.33;;;22.47;;
13897;SDS011;7019;50.766;4.474;2023-02-12T07:06:42;33.13;;;23.23;;
13897;SDS011;7019;50.766;4.474;2023-02-12T07:09:09;32.97;;;23.03;;
13897;SDS011;7019;50.766;4.474;2023-02-12T07:11:36;31.80;;;23.53;;
13897;SDS011;7019;50.766;4.474;2023-02-12T07:14:03;30.87;;;24.70;;
13897;SDS011;7019;50.766;4.474;2023-02-12T07:16:31;30.83;;;23.87;;
13897;SDS011;7019;50.766;4.474;2023-02-12T07:18:58;32.20;;;25.00;;
13897;SDS011;7019;50.766;4.474;2023-02-12T07:21:25;29.17;;;23.30;;
13897;SDS011;7019;50.766;4.474;2023-02-12T07:23:54;34.63;;;24.57;;
13897;SDS011;7019;50.766;4.474;2023-02-12T07:26:21;30.50;;;23.07;;
13897;SDS011;7019;50.766;4.474;2023-02-12T07:28:48;28.57;;;22.10;;
13897;SDS011;7019;50.766;4.474;2023-02-12T07:31:17;29.70;;;24.30;;
13897;SDS011;7019;50.766;4.474;2023-02-12T07:33:45;28.63;;;23.27;;
13897;SDS011;7019;50.766;4.474;2023-02-12T07:36:14;29.77;;;22.53;;
13897;SDS011;7019;50.766;4.474;2023-02-12T07:38:44;32.70;;;23.73;;
13897;SDS011;7019;50.766;4.474;2023-02-12T07:41:13;29.23;;;23.60;;
13897;SDS011;7019;50.766;4.474;2023-02-12T07:43:43;28.10;;;22.63;;
13897;SDS011;7019;50.766;4.474;2023-02-12T07:46:12;31.33;;;24.87;;
13897;SDS011;7019;50.766;4.474;2023-02-12T07:48:42;32.87;;;24.40;;
13897;SDS011;7019;50.766;4.474;2023-02-12T07:51:10;31.20;;;23.67;;
13897;SDS011;7019;50.766;4.474;2023-02-12T07:53:39;31.00;;;23.27;;
13897;SDS011;7019;50.766;4.474;2023-02-12T07:56:07;31.37;;;24.43;;
13897;SDS011;7019;50.766;4.474;2023-02-12T07:58:37;34.37;;;25.37;;
13897;SDS011;7019;50.766;4.474;2023-02-12T08:01:12;37.37;;;26.00;;
13897;SDS011;7019;50.766;4.474;2023-02-12T08:03:41;33.10;;;25.40;;
13897;SDS011;7019;50.766;4.474;2023-02-12T08:06:09;33.87;;;25.70;;
13897;SDS011;7019;50.766;4.474;2023-02-12T08:08:38;35.93;;;25.67;;
13897;SDS011;7019;50.766;4.474;2023-02-12T08:11:05;30.30;;;23.70;;
13897;SDS011;7019;50.766;4.474;2023-02-12T08:13:33;30.60;;;23.67;;
13897;SDS011;7019;50.766;4.474;2023-02-12T08:16:02;32.47;;;23.97;;
13897;SDS011;7019;50.766;4.474;2023-02-12T08:18:32;31.23;;;23.37;;
13897;SDS011;7019;50.766;4.474;2023-02-12T08:21:00;28.07;;;22.37;;
13897;SDS011;7019;50.766;4.474;2023-02-12T08:23:29;27.10;;;21.97;;
13897;SDS011;7019;50.766;4.474;2023-02-12T08:26:03;26.53;;;21.67;;
13897;SDS011;7019;50.766;4.474;2023-02-12T08:28:35;26.37;;;22.37;;
13897;SDS011;7019;50.766;4.474;2023-02-12T08:31:06;25.50;;;20.87;;
13897;SDS011;7019;50.766;4.474;2023-02-12T08:33:34;26.77;;;20.97;;
13897;SDS011;7019;50.766;4.474;2023-02-12T08:36:02;27.27;;;21.83;;
13897;SDS011;7019;50.766;4.474;2023-02-12T08:38:31;28.53;;;21.50;;
13897;SDS011;7019;50.766;4.474;2023-02-12T08:41:02;26.73;;;21.97;;
13897;SDS011;7019;50.766;4.474;2023-02-12T08:43:30;30.10;;;20.30;;
13897;SDS011;7019;50.766;4.474;2023-02-12T08:46:00;29.60;;;22.07;;
13897;SDS011;7019;50.766;4.474;2023-02-12T08:48:30;28.30;;;22.37;;
13897;SDS011;7019;50.766;4.474;2023-02-12T08:51:02;27.37;;;22.63;;
13897;SDS011;7019;50.766;4.474;2023-02-12T08:53:31;29.57;;;22.67;;
13897;SDS011;7019;50.766;4.474;2023-02-12T08:55:58;40.87;;;24.80;;
13897;SDS011;7019;50.766;4.474;2023-02-12T08:58:25;32.00;;;24.33;;
13897;SDS011;7019;50.766;4.474;2023-02-12T09:00:53;28.30;;;23.10;;
13897;SDS011;7019;50.766;4.474;2023-02-12T09:03:20;33.97;;;25.47;;
13897;SDS011;7019;50.766;4.474;2023-02-12T09:05:48;34.60;;;24.13;;
13897;SDS011;7019;50.766;4.474;2023-02-12T09:08:15;29.80;;;22.77;;
13897;SDS011;7019;50.766;4.474;2023-02-12T09:10:43;34.57;;;24.93;;
13897;SDS011;7019;50.766;4.474;2023-02-12T09:13:11;40.97;;;28.37;;
13897;SDS011;7019;50.766;4.474;2023-02-12T09:15:40;31.67;;;24.23;;
13897;SDS011;7019;50.766;4.474;2023-02-12T09:18:08;31.93;;;23.83;;
13897;SDS011;7019;50.766;4.474;2023-02-12T09:20:36;30.13;;;23.90;;
13897;SDS011;7019;50.766;4.474;2023-02-12T09:23:06;37.03;;;24.33;;
13897;SDS011;7019;50.766;4.474;2023-02-12T09:25:34;39.10;;;26.53;;
13897;SDS011;7019;50.766;4.474;2023-02-12T09:28:04;31.30;;;24.10;;
13897;SDS011;7019;50.766;4.474;2023-02-12T09:30:31;36.30;;;24.70;;
13897;SDS011;7019;50.766;4.474;2023-02-12T09:32:59;32.90;;;24.70;;
13897;SDS011;7019;50.766;4.474;2023-02-12T09:35:26;32.43;;;24.77;;
13897;SDS011;7019;50.766;4.474;2023-02-12T09:37:53;33.93;;;24.17;;
13897;SDS011;7019;50.766;4.474;2023-02-12T09:40:23;30.63;;;23.37;;
13897;SDS011;7019;50.766;4.474;2023-02-12T09:43:05;30.97;;;23.80;;
13897;SDS011;7019;50.766;4.474;2023-02-12T09:45:38;31.27;;;24.20;;
13897;SDS011;7019;50.766;4.474;2023-02-12T09:48:16;37.83;;;24.97;;
13897;SDS011;7019;50.766;4.474;2023-02-12T09:51:01;32.63;;;25.53;;
13897;SDS011;7019;50.766;4.474;2023-02-12T09:53:32;35.90;;;26.83;;
13897;SDS011;7019;50.766;4.474;2023-02-12T09:56:04;40.40;;;27.73;;
13897;SDS011;7019;50.766;4.474;2023-02-12T09:58:39;36.43;;;27.60;;
13897;SDS011;7019;50.766;4.474;2023-02-12T10:01:09;35.93;;;26.37;;
13897;SDS011;7019;50.766;4.474;2023-02-12T10:03:38;39.03;;;27.60;;
13897;SDS011;7019;50.766;4.474;2023-02-12T10:06:06;35.57;;;26.10;;
13897;SDS011;7019;50.766;4.474;2023-02-12T10:08:52;39.27;;;27.23;;
13897;SDS011;7019;50.766;4.474;2023-02-12T10:11:32;39.97;;;27.47;;
13897;SDS011;7019;50.766;4.474;2023-02-12T10:14:24;35.70;;;26.30;;
13897;SDS011;7019;50.766;4.474;2023-02-12T10:17:12;31.00;;;25.03;;
13897;SDS011;7019;50.766;4.474;2023-02-12T10:19:57;35.93;;;25.17;;
13897;SDS011;7019;50.766;4.474;2023-02-12T10:22:38;34.63;;;25.83;;
13897;SDS011;7019;50.766;4.474;2023-02-12T10:25:16;37.80;;;26.43;;
13897;SDS011;7019;50.766;4.474;2023-02-12T10:27:52;33.67;;;24.23;;
13897;SDS011;7019;50.766;4.474;2023-02-12T10:30:21;34.43;;;25.50;;
13897;SDS011;7019;50.766;4.474;2023-02-12T10:32:52;34.63;;;25.00;;
13897;SDS011;7019;50.766;4.474;2023-02-12T10:35:24;31.90;;;24.00;;
13897;SDS011;7019;50.766;4.474;2023-02-12T10:37:53;31.03;;;23.00;;
13897;SDS011;7019;50.766;4.474;2023-02-12T10:40:25;29.37;;;23.17;;
13897;SDS011;7019;50.766;4.474;2023-02-12T10:42:58;34.47;;;24.03;;
13897;SDS011;7019;50.766;4.474;2023-02-12T10:45:28;32.30;;;23.17;;
13897;SDS011;7019;50.766;4.474;2023-02-12T10:48:04;31.43;;;22.73;;
13897;SDS011;7019;50.766;4.474;2023-02-12T10:50:40;30.17;;;22.43;;
13897;SDS011;7019;50.766;4.474;2023-02-12T10:53:19;29.90;;;21.50;;
13897;SDS011;7019;50.766;4.474;2023-02-12T10:55:48;30.93;;;23.13;;
13897;SDS011;7019;50.766;4.474;2023-02-12T10:58:30;30.83;;;24.10;;
13897;SDS011;7019;50.766;4.474;2023-02-12T11:01:00;26.50;;;20.37;;
13897;SDS011;7019;50.766;4.474;2023-02-12T11:03:28;32.37;;;23.07;;
13897;SDS011;7019;50.766;4.474;2023-02-12T11:06:09;31.70;;;23.00;;
13897;SDS011;7019;50.766;4.474;2023-02-12T11:08:38;27.57;;;19.80;;
13897;SDS011;7019;50.766;4.474;2023-02-12T11:11:07;36.83;;;22.20;;
13897;SDS011;7019;50.766;4.474;2023-02-12T11:13:37;30.27;;;22.37;;
13897;SDS011;7019;50.766;4.474;2023-02-12T11:16:06;33.37;;;22.07;;
13897;SDS011;7019;50.766;4.474;2023-02-12T11:18:34;30.47;;;21.07;;
13897;SDS011;7019;50.766;4.474;2023-02-12T11:21:03;28.63;;;20.13;;
13897;SDS011;7019;50.766;4.474;2023-02-12T11:23:32;27.80;;;18.13;;
13897;SDS011;7019;50.766;4.474;2023-02-12T11:26:02;21.37;;;17.40;;
13897;SDS011;7019;50.766;4.474;2023-02-12T11:28:31;25.20;;;16.93;;
13897;SDS011;7019;50.766;4.474;2023-02-12T11:31:02;23.07;;;16.43;;
13897;SDS011;7019;50.766;4.474;2023-02-12T11:33:42;25.67;;;17.93;;
13897;SDS011;7019;50.766;4.474;2023-02-12T11:36:12;26.10;;;18.47;;
13897;SDS011;7019;50.766;4.474;2023-02-12T11:38:49;23.67;;;18.53;;
13897;SDS011;7019;50.766;4.474;2023-02-12T11:41:22;22.97;;;17.30;;
13897;SDS011;7019;50.766;4.474;2023-02-12T11:43:54;23.47;;;17.90;;
13897;SDS011;7019;50.766;4.474;2023-02-12T11:46:24;23.33;;;17.53;;
13897;SDS011;7019;50.766;4.474;2023-02-12T11:48:53;28.00;;;18.47;;
13897;SDS011;7019;50.766;4.474;2023-02-12T11:51:23;22.50;;;16.23;;
13897;SDS011;7019;50.766;4.474;2023-02-12T11:53:53;24.60;;;17.70;;
13897;SDS011;7019;50.766;4.474;2023-02-12T11:56:23;23.37;;;17.40;;
13897;SDS011;7019;50.766;4.474;2023-02-12T11:58:50;21.37;;;16.07;;
13897;SDS011;7019;50.766;4.474;2023-02-12T12:01:18;25.27;;;17.53;;
13897;SDS011;7019;50.766;4.474;2023-02-12T12:03:51;21.10;;;17.13;;
13897;SDS011;7019;50.766;4.474;2023-02-12T12:06:29;21.47;;;16.00;;
13897;SDS011;7019;50.766;4.474;2023-02-12T12:09:02;20.23;;;15.77;;
13897;SDS011;7019;50.766;4.474;2023-02-12T12:11:40;19.90;;;15.80;;
13897;SDS011;7019;50.766;4.474;2023-02-12T12:14:16;21.90;;;17.10;;
13897;SDS011;7019;50.766;4.474;2023-02-12T12:16:51;21.90;;;16.70;;
13897;SDS011;7019;50.766;4.474;2023-02-12T12:19:44;23.43;;;17.13;;
13897;SDS011;7019;50.766;4.474;2023-02-12T12:22:22;26.93;;;17.33;;
13897;SDS011;7019;50.766;4.474;2023-02-12T12:24:57;22.97;;;17.30;;
13897;SDS011;7019;50.766;4.474;2023-02-12T12:27:32;26.53;;;18.73;;
13897;SDS011;7019;50.766;4.474;2023-02-12T12:30:23;25.63;;;18.83;;
13897;SDS011;7019;50.766;4.474;2023-02-12T12:33:00;25.77;;;19.43;;
13897;SDS011;7019;50.766;4.474;2023-02-12T12:35:37;25.80;;;19.37;;
13897;SDS011;7019;50.766;4.474;2023-02-12T12:38:13;26.20;;;20.17;;
13897;SDS011;7019;50.766;4.474;2023-02-12T12:40:54;29.03;;;20.27;;
13897;SDS011;7019;50.766;4.474;2023-02-12T12:43:30;28.40;;;21.03;;
13897;SDS011;7019;50.766;4.474;2023-02-12T12:46:14;30.33;;;21.00;;
13897;SDS011;7019;50.766;4.474;2023-02-12T12:49:03;27.90;;;21.70;;
13897;SDS011;7019;50.766;4.474;2023-02-12T12:52:06;29.97;;;21.10;;
13897;SDS011;7019;50.766;4.474;2023-02-12T12:54:57;28.33;;;21.30;;
13897;SDS011;7019;50.766;4.474;2023-02-12T12:57:43;26.60;;;20.00;;
13897;SDS011;7019;50.766;4.474;2023-02-12T13:00:24;27.93;;;20.97;;
13897;SDS011;7019;50.766;4.474;2023-02-12T13:03:13;31.40;;;22.10;;
13897;SDS011;7019;50.766;4.474;2023-02-12T13:06:13;32.13;;;22.00;;
13897;SDS011;7019;50.766;4.474;2023-02-12T13:09:02;28.17;;;20.53;;
13897;SDS011;7019;50.766;4.474;2023-02-12T13:11:45;28.80;;;20.17;;
13897;SDS011;7019;50.766;4.474;2023-02-12T13:14:27;30.90;;;21.47;;
13897;SDS011;7019;50.766;4.474;2023-02-12T13:17:03;29.43;;;20.20;;
13897;SDS011;7019;50.766;4.474;2023-02-12T13:19:42;26.07;;;19.17;;
13897;SDS011;7019;50.766;4.474;2023-02-12T13:22:19;23.73;;;18.40;;
13897;SDS011;7019;50.766;4.474;2023-02-12T13:24:53;30.77;;;19.37;;
13897;SDS011;7019;50.766;4.474;2023-02-12T13:27:27;28.47;;;21.00;;
13897;SDS011;7019;50.766;4.474;2023-02-12T13:30:00;31.53;;;21.93;;
13897;SDS011;7019;50.766;4.474;2023-02-12T13:32:33;33.87;;;22.07;;
13897;SDS011;7019;50.766;4.474;2023-02-12T13:35:05;28.73;;;20.40;;
13897;SDS011;7019;50.766;4.474;2023-02-12T13:37:35;30.00;;;22.20;;
13897;SDS011;7019;50.766;4.474;2023-02-12T13:40:13;34.17;;;22.57;;
13897;SDS011;7019;50.766;4.474;2023-02-12T13:42:43;31.77;;;22.17;;
13897;SDS011;7019;50.766;4.474;2023-02-12T13:45:17;35.13;;;22.50;;
13897;SDS011;7019;50.766;4.474;2023-02-12T13:47:55;29.00;;;21.03;;
13897;SDS011;7019;50.766;4.474;2023-02-12T13:50:35;31.80;;;22.40;;
13897;SDS011;7019;50.766;4.474;2023-02-12T13:53:07;32.10;;;23.00;;
13897;SDS011;7019;50.766;4.474;2023-02-12T13:55:49;29.40;;;22.00;;
13897;SDS011;7019;50.766;4.474;2023-02-12T13:58:39;34.67;;;22.87;;
13897;SDS011;7019;50.766;4.474;2023-02-12T14:04:25;32.27;;;24.13;;
13897;SDS011;7019;50.766;4.474;2023-02-12T14:06:56;36.40;;;24.10;;
13897;SDS011;7019;50.766;4.474;2023-02-12T14:09:28;36.03;;;25.00;;
13897;SDS011;7019;50.766;4.474;2023-02-12T14:11:59;32.03;;;22.27;;
13897;SDS011;7019;50.766;4.474;2023-02-12T14:14:30;36.97;;;23.70;;
13897;SDS011;7019;50.766;4.474;2023-02-12T14:20:22;36.77;;;23.93;;
13897;SDS011;7019;50.766;4.474;2023-02-12T14:22:57;31.47;;;22.60;;
13897;SDS011;7019;50.766;4.474;2023-02-12T14:25:36;32.80;;;23.60;;
13897;SDS011;7019;50.766;4.474;2023-02-12T14:28:12;36.03;;;23.70;;
13897;SDS011;7019;50.766;4.474;2023-02-12T14:37:17;36.70;;;23.00;;
13897;SDS011;7019;50.766;4.474;2023-02-12T14:49:19;32.90;;;22.73;;
13897;SDS011;7019;50.766;4.474;2023-02-12T14:51:52;34.80;;;24.03;;
13897;SDS011;7019;50.766;4.474;2023-02-12T14:54:25;35.30;;;25.47;;
13897;SDS011;7019;50.766;4.474;2023-02-12T14:56:58;36.03;;;23.20;;
13897;SDS011;7019;50.766;4.474;2023-02-12T14:59:30;37.63;;;24.27;;
13897;SDS011;7019;50.766;4.474;2023-02-12T15:02:04;33.53;;;23.63;;
13897;SDS011;7019;50.766;4.474;2023-02-12T15:04:35;34.27;;;23.83;;
13897;SDS011;7019;50.766;4.474;2023-02-12T15:07:04;33.13;;;22.90;;
13897;SDS011;7019;50.766;4.474;2023-02-12T15:09:35;33.30;;;23.00;;
13897;SDS011;7019;50.766;4.474;2023-02-12T15:12:08;35.40;;;23.27;;
13897;SDS011;7019;50.766;4.474;2023-02-12T15:14:41;34.40;;;22.43;;
13897;SDS011;7019;50.766;4.474;2023-02-12T15:17:14;31.33;;;21.33;;
13897;SDS011;7019;50.766;4.474;2023-02-12T15:19:48;32.33;;;20.80;;
13897;SDS011;7019;50.766;4.474;2023-02-12T15:22:22;31.53;;;20.93;;
13897;SDS011;7019;50.766;4.474;2023-02-12T15:24:52;33.13;;;20.47;;
13897;SDS011;7019;50.766;4.474;2023-02-12T15:27:19;32.53;;;21.77;;
13897;SDS011;7019;50.766;4.474;2023-02-12T15:29:47;30.27;;;21.50;;